createdAt,value
2022-10-25T00:00:39.939Z,11.39
2022-10-25T00:03:11.093Z,10.96
2022-10-25T00:05:39.656Z,11.05
2022-10-25T00:08:06.871Z,11.00
2022-10-25T00:10:34.538Z,11.35
2022-10-25T00:13:01.702Z,11.24
2022-10-25T00:15:28.704Z,11.11
2022-10-25T00:17:55.244Z,11.21
2022-10-25T00:20:21.846Z,11.21
2022-10-25T00:22:48.591Z,11.05
2022-10-25T00:25:15.603Z,11.05
2022-10-25T00:27:42.200Z,11.03
2022-10-25T00:30:09.620Z,11.24
2022-10-25T00:32:36.488Z,11.24
2022-10-25T00:35:06.478Z,11.36
2022-10-25T00:37:33.210Z,11.35
2022-10-25T00:39:59.844Z,11.45
2022-10-25T00:42:27.382Z,11.54
2022-10-25T00:44:58.496Z,11.44
2022-10-25T00:47:38.152Z,11.34
2022-10-25T00:50:16.846Z,11.19
2022-10-25T00:52:47.323Z,10.77
2022-10-25T00:55:18.873Z,10.81
2022-10-25T00:57:55.934Z,11.01
2022-10-25T01:00:22.622Z,11.07
2022-10-25T01:02:49.425Z,10.98
2022-10-25T01:05:19.895Z,10.85
2022-10-25T01:07:46.877Z,10.86
2022-10-25T01:10:15.155Z,10.77
2022-10-25T01:12:41.677Z,10.83
2022-10-25T01:15:09.112Z,10.79
2022-10-25T01:17:42.332Z,10.84
2022-10-25T01:20:08.926Z,10.85
2022-10-25T01:22:42.554Z,10.61
2022-10-25T01:25:21.826Z,10.67
2022-10-25T01:28:09.807Z,10.88
2022-10-25T01:31:13.922Z,11.01
2022-10-25T01:33:40.470Z,10.76
2022-10-25T01:36:44.344Z,10.94
2022-10-25T01:39:18.022Z,10.60
2022-10-25T01:41:56.884Z,10.70
2022-10-25T01:44:39.598Z,10.74
2022-10-25T01:47:35.682Z,10.58
2022-10-25T01:50:11.053Z,10.66
2022-10-25T01:52:37.631Z,10.55
2022-10-25T01:55:08.460Z,10.77
2022-10-25T01:57:57.289Z,10.69
2022-10-25T02:00:25.598Z,10.54
2022-10-25T02:03:09.956Z,10.47
2022-10-25T02:05:56.446Z,10.56
2022-10-25T02:08:41.317Z,10.66
2022-10-25T02:11:24.595Z,10.73
2022-10-25T02:14:00.185Z,10.45
2022-10-25T02:16:32.240Z,10.28
2022-10-25T02:19:03.808Z,10.15
2022-10-25T02:21:33.665Z,10.24
2022-10-25T02:24:06.651Z,10.34
2022-10-25T02:26:35.940Z,10.32
2022-10-25T02:29:04.830Z,10.30
2022-10-25T02:31:35.503Z,10.33
2022-10-25T02:34:02.534Z,10.25
2022-10-25T02:36:29.422Z,10.18
2022-10-25T02:38:56.398Z,9.85
2022-10-25T02:41:23.467Z,9.71
2022-10-25T02:43:50.188Z,9.92
2022-10-25T02:46:22.480Z,10.08
2022-10-25T02:48:49.778Z,10.30
2022-10-25T02:51:17.155Z,10.30
2022-10-25T02:53:44.086Z,10.29
2022-10-25T02:56:16.582Z,10.34
2022-10-25T02:58:44.501Z,10.18
2022-10-25T03:01:12.084Z,10.04
2022-10-25T03:03:39.542Z,9.98
2022-10-25T03:06:07.369Z,10.04
2022-10-25T03:08:34.523Z,10.10
2022-10-25T03:11:01.354Z,10.26
2022-10-25T03:13:28.302Z,10.01
2022-10-25T03:15:55.382Z,10.05
2022-10-25T03:18:22.004Z,9.96
2022-10-25T03:20:49.139Z,9.54
2022-10-25T03:23:17.141Z,10.01
2022-10-25T03:25:44.039Z,9.96
2022-10-25T03:28:10.855Z,9.79
2022-10-25T03:30:37.484Z,9.83
2022-10-25T03:33:04.135Z,9.71
2022-10-25T03:35:30.911Z,9.73
2022-10-25T03:37:57.495Z,9.78
2022-10-25T03:40:24.076Z,9.64
2022-10-25T03:42:50.732Z,9.59
2022-10-25T03:45:17.526Z,9.51
2022-10-25T03:47:44.626Z,9.66
2022-10-25T03:50:11.742Z,9.80
2022-10-25T03:52:39.185Z,9.82
2022-10-25T03:55:06.669Z,9.54
2022-10-25T03:57:33.427Z,9.62
2022-10-25T04:00:00.020Z,9.71
2022-10-25T04:02:27.299Z,9.50
2022-10-25T04:04:54.250Z,9.22
2022-10-25T04:07:20.959Z,9.29
2022-10-25T04:09:47.471Z,9.61
2022-10-25T04:12:14.520Z,9.51
2022-10-25T04:14:41.164Z,9.50
2022-10-25T04:17:07.750Z,9.59
2022-10-25T04:19:34.408Z,9.51
2022-10-25T04:22:00.978Z,9.54
2022-10-25T04:24:28.582Z,9.20
2022-10-25T04:26:55.319Z,9.30
2022-10-25T04:29:21.972Z,9.23
2022-10-25T04:31:48.713Z,9.19
2022-10-25T04:34:18.376Z,9.21
2022-10-25T04:36:44.945Z,9.30
2022-10-25T04:39:11.450Z,9.43
2022-10-25T04:41:38.130Z,9.68
2022-10-25T04:44:04.791Z,9.51
2022-10-25T04:46:31.439Z,9.48
2022-10-25T04:48:57.992Z,9.46
2022-10-25T04:51:24.632Z,9.18
2022-10-25T04:53:53.698Z,9.37
2022-10-25T04:56:20.439Z,9.43
2022-10-25T04:58:46.941Z,9.38
2022-10-25T05:01:16.171Z,9.34
2022-10-25T05:03:43.066Z,9.32
2022-10-25T05:06:22.059Z,9.44
2022-10-25T05:08:50.268Z,9.37
2022-10-25T05:11:21.399Z,9.53
2022-10-25T05:13:48.126Z,9.49
2022-10-25T05:16:17.300Z,9.55
2022-10-25T05:18:44.251Z,9.38
2022-10-25T05:21:12.900Z,9.54
2022-10-25T05:23:39.823Z,9.28
2022-10-25T05:26:09.891Z,9.45
2022-10-25T05:28:38.612Z,9.34
2022-10-25T05:33:37.708Z,9.19
2022-10-25T05:36:04.725Z,9.26
2022-10-25T05:38:34.288Z,9.41
2022-10-25T05:41:05.107Z,9.11
2022-10-25T05:43:31.878Z,8.97
2022-10-25T05:46:05.525Z,9.39
2022-10-25T05:48:33.636Z,9.40
2022-10-25T05:51:32.353Z,9.55
2022-10-25T05:54:02.529Z,9.54
2022-10-25T05:56:30.661Z,9.33
2022-10-25T05:58:57.529Z,9.29
2022-10-25T06:01:25.851Z,9.31
2022-10-25T06:03:54.575Z,9.23
2022-10-25T06:06:22.480Z,9.26
2022-10-25T06:08:49.245Z,9.17
2022-10-25T06:11:18.454Z,9.26
2022-10-25T06:13:46.033Z,9.23
2022-10-25T06:16:15.135Z,9.58
2022-10-25T06:18:42.226Z,9.47
2022-10-25T06:21:11.761Z,9.26
2022-10-25T06:23:38.525Z,9.17
2022-10-25T06:26:11.333Z,9.28
2022-10-25T06:28:38.483Z,9.44
2022-10-25T06:31:07.156Z,9.41
2022-10-25T06:33:34.371Z,9.40
2022-10-25T06:36:02.327Z,9.02
2022-10-25T06:38:29.401Z,9.36
2022-10-25T06:41:03.750Z,9.23
2022-10-25T06:43:31.040Z,9.09
2022-10-25T06:45:57.729Z,9.32
2022-10-25T06:48:24.546Z,9.02
2022-10-25T06:51:11.546Z,9.31
2022-10-25T06:53:38.549Z,9.25
2022-10-25T06:56:14.505Z,9.26
2022-10-25T06:58:42.111Z,9.37
2022-10-25T07:01:14.043Z,9.16
2022-10-25T07:03:41.335Z,9.13
2022-10-25T07:06:12.871Z,9.29
2022-10-25T07:08:42.240Z,9.15
2022-10-25T07:11:19.661Z,9.43
2022-10-25T07:13:46.985Z,9.30
2022-10-25T07:16:15.661Z,9.34
2022-10-25T07:18:43.497Z,9.49
2022-10-25T07:21:22.256Z,9.68
2022-10-25T07:23:50.767Z,9.86
2022-10-25T07:26:21.534Z,9.90
2022-10-25T07:28:49.801Z,10.01
2022-10-25T07:31:19.362Z,9.69
2022-10-25T07:33:46.242Z,9.78
2022-10-25T07:36:12.762Z,9.81
2022-10-25T07:38:39.434Z,9.85
2022-10-25T07:41:06.673Z,9.73
2022-10-25T07:43:33.619Z,9.80
2022-10-25T07:46:00.332Z,9.75
2022-10-25T07:48:26.959Z,9.84
2022-10-25T07:50:53.490Z,9.73
2022-10-25T07:53:20.071Z,9.75
2022-10-25T07:55:55.109Z,9.60
2022-10-25T07:58:22.226Z,9.99
2022-10-25T08:00:49.062Z,9.94
2022-10-25T08:03:17.975Z,9.92
2022-10-25T08:05:46.561Z,9.84
2022-10-25T08:08:14.671Z,9.98
2022-10-25T08:10:43.313Z,10.19
2022-10-25T08:13:10.352Z,10.19
2022-10-25T08:15:36.865Z,10.14
2022-10-25T08:18:04.302Z,10.35
2022-10-25T08:20:56.489Z,10.22
2022-10-25T08:23:17.393Z,10.19
2022-10-25T08:25:44.017Z,10.24
2022-10-25T08:28:10.761Z,10.27
2022-10-25T08:30:37.630Z,10.25
2022-10-25T08:33:05.751Z,10.45
2022-10-25T08:35:34.872Z,10.30
2022-10-25T08:38:02.485Z,9.89
2022-10-25T08:41:07.631Z,10.38
2022-10-25T08:44:18.835Z,10.36
2022-10-25T08:46:48.305Z,10.16
2022-10-25T08:49:21.018Z,10.10
2022-10-25T08:51:49.341Z,10.28
2022-10-25T08:54:26.962Z,10.57
2022-10-25T08:57:22.944Z,10.70
2022-10-25T08:59:56.131Z,10.76
2022-10-25T09:02:32.443Z,10.64
2022-10-25T09:04:59.648Z,10.64
2022-10-25T09:07:53.842Z,10.67
2022-10-25T09:11:16.719Z,10.80
2022-10-25T09:13:49.470Z,11.28
2022-10-25T09:16:32.282Z,11.48
2022-10-25T09:18:59.043Z,11.54
2022-10-25T09:21:43.181Z,11.92
2022-10-25T09:24:21.197Z,12.26
2022-10-25T09:27:07.460Z,12.36
2022-10-25T09:29:39.169Z,12.36
2022-10-25T09:32:22.467Z,12.38
2022-10-25T09:34:49.905Z,12.66
2022-10-25T09:37:38.871Z,12.87
2022-10-25T09:40:45.165Z,12.91
2022-10-25T09:43:18.429Z,12.91
2022-10-25T09:45:55.569Z,13.15
2022-10-25T09:48:27.494Z,12.91
2022-10-25T09:51:10.741Z,12.72
2022-10-25T09:53:40.698Z,12.68
2022-10-25T09:56:07.409Z,12.83
2022-10-25T09:58:38.741Z,12.84
2022-10-25T10:01:11.539Z,12.47
2022-10-25T10:03:38.251Z,12.45
2022-10-25T10:06:12.908Z,12.57
2022-10-25T10:08:43.622Z,12.64
2022-10-25T10:11:17.226Z,12.42
2022-10-25T10:13:59.880Z,12.30
2022-10-25T10:16:31.595Z,12.32
2022-10-25T10:19:20.733Z,12.49
2022-10-25T10:21:51.097Z,12.51
2022-10-25T10:24:22.135Z,12.59
2022-10-25T10:26:51.880Z,12.83
2022-10-25T10:29:22.200Z,12.81
2022-10-25T10:32:26.661Z,12.85
2022-10-25T10:35:02.430Z,12.82
2022-10-25T10:37:31.383Z,12.80
2022-10-25T10:40:19.643Z,12.86
2022-10-25T10:42:46.823Z,13.11
2022-10-25T10:45:16.935Z,13.35
2022-10-25T10:47:49.437Z,13.44
2022-10-25T10:50:21.842Z,13.48
2022-10-25T10:53:05.371Z,13.59
2022-10-25T10:55:35.073Z,13.20
2022-10-25T10:58:10.747Z,13.72
2022-10-25T11:00:37.638Z,13.71
2022-10-25T11:03:04.376Z,13.89
2022-10-25T11:05:34.083Z,14.16
2022-10-25T11:08:22.333Z,14.31
2022-10-25T11:10:49.061Z,14.49
2022-10-25T11:13:18.601Z,14.75
2022-10-25T11:16:15.036Z,14.85
2022-10-25T11:18:57.508Z,14.80
2022-10-25T11:21:24.210Z,14.83
2022-10-25T11:24:05.659Z,14.92
2022-10-25T11:27:19.772Z,15.22
2022-10-25T11:29:58.194Z,15.11
2022-10-25T11:32:40.253Z,14.90
2022-10-25T11:35:06.829Z,14.83
2022-10-25T11:37:49.571Z,14.74
2022-10-25T11:40:23.054Z,14.82
2022-10-25T11:42:59.874Z,15.07
2022-10-25T11:45:32.378Z,15.13
2022-10-25T11:48:40.524Z,15.08
2022-10-25T11:51:26.066Z,14.66
2022-10-25T11:54:04.531Z,14.63
2022-10-25T11:56:38.197Z,14.43
2022-10-25T11:59:20.037Z,14.09
2022-10-25T12:02:16.172Z,13.76
2022-10-25T12:05:06.787Z,13.68
2022-10-25T12:07:58.760Z,13.59
2022-10-25T12:10:39.227Z,13.47
2022-10-25T12:13:26.133Z,13.96
2022-10-25T12:15:55.073Z,13.93
2022-10-25T12:18:31.851Z,13.47
2022-10-25T12:20:59.301Z,13.61
2022-10-25T12:23:28.989Z,13.50
2022-10-25T12:26:02.326Z,13.39
2022-10-25T12:28:42.224Z,13.67
2022-10-25T12:31:17.136Z,14.20
2022-10-25T12:34:07.691Z,14.51
2022-10-25T12:36:43.715Z,14.50
2022-10-25T12:39:38.289Z,14.51
2022-10-25T12:42:13.668Z,14.39
2022-10-25T12:45:12.503Z,14.52
2022-10-25T12:47:51.003Z,14.45
2022-10-25T12:50:48.319Z,14.55
2022-10-25T12:53:53.965Z,14.62
2022-10-25T12:56:43.082Z,14.62
2022-10-25T12:59:28.449Z,14.48
2022-10-25T13:02:07.070Z,14.43
2022-10-25T13:04:51.535Z,14.73
2022-10-25T13:07:20.413Z,14.82
2022-10-25T13:09:47.249Z,14.59
2022-10-25T13:12:22.814Z,14.35
2022-10-25T13:14:52.941Z,14.31
2022-10-25T13:17:19.423Z,14.25
2022-10-25T13:19:55.232Z,14.40
2022-10-25T13:22:38.882Z,14.28
2022-10-25T13:25:09.184Z,14.34
2022-10-25T13:27:36.668Z,14.30
2022-10-25T13:30:06.125Z,14.32
2022-10-25T13:32:35.764Z,14.12
2022-10-25T13:35:22.710Z,14.09
2022-10-25T13:38:08.121Z,14.15
2022-10-25T13:40:35.214Z,14.12
2022-10-25T13:43:03.723Z,14.07
2022-10-25T13:45:37.997Z,13.92
2022-10-25T13:48:13.666Z,14.02
2022-10-25T13:50:52.080Z,14.08
2022-10-25T13:53:42.239Z,14.28
2022-10-25T13:56:12.938Z,14.19
2022-10-25T13:58:45.787Z,14.39
2022-10-25T14:01:15.617Z,14.26
2022-10-25T14:03:46.176Z,13.92
2022-10-25T14:06:31.795Z,14.04
2022-10-25T14:09:16.894Z,14.12
2022-10-25T14:12:01.617Z,14.02
2022-10-25T14:14:45.217Z,14.12
2022-10-25T14:17:19.240Z,14.25
2022-10-25T14:19:48.564Z,14.42
2022-10-25T14:22:27.921Z,14.23
2022-10-25T14:24:57.575Z,14.15
2022-10-25T14:27:30.816Z,14.07
2022-10-25T14:30:14.047Z,14.04
2022-10-25T14:32:49.936Z,13.84
2022-10-25T14:35:17.116Z,13.64
2022-10-25T14:37:43.663Z,13.32
2022-10-25T14:40:24.950Z,13.77
2022-10-25T14:42:54.239Z,13.91
2022-10-25T14:45:24.356Z,14.05
2022-10-25T14:47:51.408Z,14.07
2022-10-25T14:50:21.401Z,14.14
2022-10-25T14:52:50.024Z,14.40
2022-10-25T14:55:18.825Z,14.38
2022-10-25T14:57:46.454Z,14.11
2022-10-25T15:00:17.996Z,14.11
2022-10-25T15:02:45.519Z,13.88
2022-10-25T15:05:19.135Z,14.06
2022-10-25T15:07:46.803Z,14.23
2022-10-25T15:10:35.063Z,14.27
2022-10-25T15:13:04.650Z,13.97
2022-10-25T15:15:36.853Z,13.86
2022-10-25T15:18:04.042Z,13.76
2022-10-25T15:20:32.933Z,13.20
2022-10-25T15:23:15.891Z,13.42
2022-10-25T15:25:42.536Z,13.29
2022-10-25T15:28:14.152Z,13.39
2022-10-25T15:30:49.655Z,13.49
2022-10-25T15:33:22.911Z,13.73
2022-10-25T15:36:00.481Z,13.63
2022-10-25T15:38:41.970Z,13.64
2022-10-25T15:41:08.890Z,13.80
2022-10-25T15:43:35.387Z,13.72
2022-10-25T15:46:02.140Z,13.69
2022-10-25T15:48:29.327Z,13.70
2022-10-25T15:50:58.041Z,13.70
2022-10-25T15:53:25.617Z,13.85
2022-10-25T15:55:52.994Z,13.88
2022-10-25T15:58:19.508Z,13.89
2022-10-25T16:00:46.221Z,13.91
2022-10-25T16:03:22.501Z,13.93
2022-10-25T16:05:50.424Z,13.90
2022-10-25T16:08:17.783Z,13.68
2022-10-25T16:10:44.692Z,13.58
2022-10-25T16:13:15.167Z,13.76
2022-10-25T16:15:42.811Z,13.68
2022-10-25T16:18:11.070Z,13.62
2022-10-25T16:20:37.664Z,13.52
2022-10-25T16:23:04.344Z,13.47
2022-10-25T16:25:32.956Z,13.45
2022-10-25T16:28:00.830Z,13.35
2022-10-25T16:30:31.728Z,13.32
2022-10-25T16:32:58.306Z,13.19
2022-10-25T16:35:24.804Z,13.11
2022-10-25T16:37:52.102Z,13.01
2022-10-25T16:40:20.770Z,12.88
2022-10-25T16:42:48.460Z,12.72
2022-10-25T16:45:22.214Z,12.63
2022-10-25T16:47:48.797Z,12.42
2022-10-25T16:50:15.339Z,12.44
2022-10-25T16:52:42.506Z,12.32
2022-10-25T16:55:10.053Z,12.17
2022-10-25T16:57:36.701Z,12.18
2022-10-25T17:00:04.259Z,12.06
2022-10-25T17:02:30.930Z,12.00
2022-10-25T17:04:57.561Z,11.91
2022-10-25T17:07:24.225Z,11.89
2022-10-25T17:09:50.729Z,11.68
2022-10-25T17:12:17.384Z,11.74
2022-10-25T17:14:43.930Z,11.83
2022-10-25T17:17:10.537Z,11.84
2022-10-25T17:19:37.096Z,11.86
2022-10-25T17:22:03.808Z,11.86
2022-10-25T17:24:30.318Z,11.77
2022-10-25T17:26:57.052Z,11.71
2022-10-25T17:29:23.595Z,11.55
2022-10-25T17:31:50.124Z,11.52
2022-10-25T17:34:16.628Z,11.43
2022-10-25T17:36:43.406Z,11.38
2022-10-25T17:39:11.495Z,11.34
2022-10-25T17:41:38.080Z,11.26
2022-10-25T17:44:04.781Z,11.19
2022-10-25T17:46:32.022Z,11.11
2022-10-25T17:49:00.724Z,11.05
2022-10-25T17:51:27.309Z,11.13
2022-10-25T17:53:54.755Z,11.08
2022-10-25T17:56:23.612Z,11.06
2022-10-25T17:58:51.262Z,10.66
2022-10-25T18:01:28.177Z,10.81
2022-10-25T18:03:55.275Z,10.71
2022-10-25T18:06:24.298Z,10.80
2022-10-25T18:08:59.102Z,10.83
2022-10-25T18:11:27.443Z,10.73
2022-10-25T18:14:04.102Z,10.85
2022-10-25T18:16:32.192Z,10.84
2022-10-25T18:19:01.728Z,10.89
2022-10-25T18:21:28.699Z,10.91
2022-10-25T18:24:00.016Z,10.76
2022-10-25T18:26:27.220Z,10.84
2022-10-25T18:28:54.008Z,10.65
2022-10-25T18:31:20.668Z,10.66
2022-10-25T18:33:47.504Z,10.60
2022-10-25T18:36:18.913Z,10.59
2022-10-25T18:38:46.878Z,10.55
2022-10-25T18:41:15.849Z,10.54
2022-10-25T18:43:42.923Z,10.49
2022-10-25T18:46:09.991Z,10.50
2022-10-25T18:48:36.627Z,10.29
2022-10-25T18:51:11.282Z,10.19
2022-10-25T18:53:38.410Z,10.11
2022-10-25T18:56:17.054Z,9.73
2022-10-25T18:58:46.238Z,9.42
2022-10-25T19:01:15.691Z,9.29
2022-10-25T19:03:43.560Z,9.55
2022-10-25T19:06:10.810Z,9.63
2022-10-25T19:08:37.634Z,9.59
2022-10-25T19:11:09.932Z,9.43
2022-10-25T19:13:36.922Z,9.37
2022-10-25T19:16:03.930Z,9.38
2022-10-25T19:18:31.954Z,9.28
2022-10-25T19:21:08.000Z,9.32
2022-10-25T19:23:35.441Z,9.12
2022-10-25T19:26:04.328Z,8.78
2022-10-25T19:28:31.860Z,8.77
2022-10-25T19:31:07.164Z,8.86
2022-10-25T19:33:34.302Z,9.06
2022-10-25T19:36:09.959Z,8.97
2022-10-25T19:38:37.583Z,8.91
2022-10-25T19:41:07.028Z,8.79
2022-10-25T19:43:34.096Z,8.92
2022-10-25T19:46:03.244Z,8.90
2022-10-25T19:48:30.260Z,8.91
2022-10-25T19:50:57.275Z,8.85
2022-10-25T19:53:24.132Z,8.81
2022-10-25T19:56:01.208Z,8.78
2022-10-25T19:58:28.092Z,8.81
2022-10-25T20:01:10.746Z,8.76
2022-10-25T20:03:38.833Z,8.73
2022-10-25T20:06:11.421Z,8.45
2022-10-25T20:08:39.887Z,8.43
2022-10-25T20:11:07.668Z,8.52
2022-10-25T20:13:34.757Z,8.35
2022-10-25T20:16:02.126Z,8.24
2022-10-25T20:18:34.359Z,8.30
2022-10-25T20:21:07.695Z,7.96
2022-10-25T20:23:35.474Z,8.10
2022-10-25T20:26:20.207Z,8.13
2022-10-25T20:28:48.026Z,8.23
2022-10-25T20:31:15.418Z,8.12
2022-10-25T20:33:42.548Z,7.86
2022-10-25T20:36:12.205Z,8.05
2022-10-25T20:38:39.872Z,8.13
2022-10-25T20:41:09.293Z,7.88
2022-10-25T20:43:36.504Z,8.05
2022-10-25T20:46:03.549Z,8.19
2022-10-25T20:48:30.584Z,8.10
2022-10-25T20:50:57.291Z,7.65
2022-10-25T20:53:24.006Z,7.97
2022-10-25T20:55:50.927Z,8.05
2022-10-25T20:58:19.928Z,7.84
2022-10-25T21:00:47.389Z,8.02
2022-10-25T21:03:15.231Z,8.06
2022-10-25T21:05:41.767Z,7.98
2022-10-25T21:08:15.526Z,8.02
2022-10-25T21:10:42.771Z,7.93
2022-10-25T21:13:10.269Z,7.92
2022-10-25T21:15:37.201Z,7.90
2022-10-25T21:18:03.836Z,7.86
2022-10-25T21:20:30.372Z,7.84
2022-10-25T21:22:56.878Z,7.83
2022-10-25T21:25:23.626Z,7.80
2022-10-25T21:27:54.396Z,7.73
2022-10-25T21:30:20.995Z,7.46
2022-10-25T21:32:47.553Z,7.40
2022-10-25T21:35:14.181Z,7.51
2022-10-25T21:37:43.313Z,7.28
2022-10-25T21:40:14.674Z,7.38
2022-10-25T21:42:41.443Z,7.33
2022-10-25T21:45:08.940Z,7.32
2022-10-25T21:47:35.666Z,7.31
2022-10-25T21:50:03.561Z,7.36
2022-10-25T21:52:30.068Z,7.40
2022-10-25T21:54:56.662Z,7.50
2022-10-25T21:57:23.335Z,7.37
2022-10-25T21:59:49.934Z,7.46
2022-10-25T22:02:17.155Z,7.48
2022-10-25T22:04:43.860Z,7.51
2022-10-25T22:07:10.366Z,7.25
2022-10-25T22:09:37.112Z,7.14
2022-10-25T22:12:04.244Z,7.11
2022-10-25T22:14:31.022Z,6.98
2022-10-25T22:16:57.600Z,6.84
2022-10-25T22:21:55.752Z,6.98
2022-10-25T22:24:22.364Z,7.08
2022-10-25T22:26:50.442Z,7.04
2022-10-25T22:29:17.047Z,6.97
2022-10-25T22:31:43.648Z,6.96
2022-10-25T22:34:10.638Z,6.78
2022-10-25T22:36:39.961Z,6.82
2022-10-25T22:39:07.632Z,6.79
2022-10-25T22:41:34.635Z,6.59
2022-10-25T22:44:01.196Z,6.89
2022-10-25T22:46:33.274Z,6.78
2022-10-25T22:49:03.978Z,6.84
2022-10-25T22:51:30.602Z,6.73
2022-10-25T22:53:57.522Z,6.80
2022-10-25T22:56:26.608Z,6.75
2022-10-25T22:58:58.877Z,6.81
2022-10-25T23:01:29.575Z,6.92
2022-10-25T23:03:57.769Z,6.82
2022-10-25T23:06:27.781Z,6.83
2022-10-25T23:08:55.440Z,6.78
2022-10-25T23:11:25.341Z,6.71
2022-10-25T23:13:52.186Z,6.74
2022-10-25T23:16:19.240Z,6.50
2022-10-25T23:18:46.267Z,6.42
2022-10-25T23:21:18.754Z,6.18
2022-10-25T23:23:46.254Z,6.31
2022-10-25T23:26:17.312Z,6.39
2022-10-25T23:28:44.170Z,6.63
2022-10-25T23:31:12.317Z,6.64
2022-10-25T23:33:39.643Z,6.75
2022-10-25T23:36:15.015Z,6.69
2022-10-25T23:38:45.010Z,6.62
2022-10-25T23:41:12.309Z,6.58
2022-10-25T23:43:39.165Z,6.34
2022-10-25T23:46:07.032Z,6.52
2022-10-25T23:48:33.822Z,6.54
2022-10-25T23:51:03.480Z,6.50
2022-10-25T23:53:30.086Z,6.39
2022-10-25T23:55:57.235Z,6.45
2022-10-25T23:58:23.979Z,6.20
